Terminal Aerodrome Forecast
Issued by NWS

Home | Current Version | Previous Version | Text Only | Print | Product List | Glossary Off
Versions: 1 2 3 4 5 6 7 8 9 10 11 12 13 14 15

000
FTUS43 KGRB 241419 AAA
TAFMTW
TAF AMD
KMTW 241419Z 2414/2512 31010KT P6SM SCT020 BKN100
     FM241600 29012G18KT P6SM BKN050
      TEMPO 2422/2424 -SHRA BKN035
     FM250000 29006KT P6SM SCT035 BKN070
      TEMPO 2500/2503 -SHRA BKN035=

USA.gov is the U.S. government's official web portal to all federal, state and local government web resources and services.